sensor_id;sensor_type;location;lat;lon;timestamp;P1;durP1;ratioP1;P2;durP2;ratioP2
63110;SDS011;49201;53.426;10.300;2023-04-24T00:00:15;7.37;;;6.30;;
63110;SDS011;49201;53.426;10.300;2023-04-24T00:02:42;7.63;;;6.40;;
63110;SDS011;49201;53.426;10.300;2023-04-24T00:05:12;6.83;;;6.13;;
63110;SDS011;49201;53.426;10.300;2023-04-24T00:07:42;7.17;;;6.47;;
63110;SDS011;49201;53.426;10.300;2023-04-24T00:10:11;7.17;;;6.43;;
63110;SDS011;49201;53.426;10.300;2023-04-24T00:12:37;7.17;;;6.47;;
63110;SDS011;49201;53.426;10.300;2023-04-24T00:15:03;6.80;;;6.20;;
63110;SDS011;49201;53.426;10.300;2023-04-24T00:17:29;7.23;;;6.50;;
63110;SDS011;49201;53.426;10.300;2023-04-24T00:19:54;6.83;;;6.20;;
63110;SDS011;49201;53.426;10.300;2023-04-24T00:22:27;7.87;;;6.53;;
63110;SDS011;49201;53.426;10.300;2023-04-24T00:24:53;10.27;;;6.60;;
63110;SDS011;49201;53.426;10.300;2023-04-24T00:27:19;7.07;;;6.37;;
63110;SDS011;49201;53.426;10.300;2023-04-24T00:29:44;6.83;;;6.23;;
63110;SDS011;49201;53.426;10.300;2023-04-24T00:32:10;7.63;;;5.90;;
63110;SDS011;49201;53.426;10.300;2023-04-24T00:34:35;7.47;;;6.53;;
63110;SDS011;49201;53.426;10.300;2023-04-24T00:37:01;7.17;;;6.47;;
63110;SDS011;49201;53.426;10.300;2023-04-24T00:39:27;7.40;;;6.40;;
63110;SDS011;49201;53.426;10.300;2023-04-24T00:41:52;6.60;;;5.90;;
63110;SDS011;49201;53.426;10.300;2023-04-24T00:44:19;7.63;;;5.90;;
63110;SDS011;49201;53.426;10.300;2023-04-24T00:46:45;7.13;;;5.63;;
63110;SDS011;49201;53.426;10.300;2023-04-24T00:49:11;5.97;;;5.43;;
63110;SDS011;49201;53.426;10.300;2023-04-24T00:51:37;5.97;;;5.43;;
63110;SDS011;49201;53.426;10.300;2023-04-24T00:54:03;7.10;;;5.87;;
63110;SDS011;49201;53.426;10.300;2023-04-24T00:56:28;9.73;;;6.10;;
63110;SDS011;49201;53.426;10.300;2023-04-24T00:58:54;6.07;;;5.57;;
63110;SDS011;49201;53.426;10.300;2023-04-24T01:01:21;6.13;;;5.53;;
63110;SDS011;49201;53.426;10.300;2023-04-24T01:03:47;5.90;;;5.30;;
63110;SDS011;49201;53.426;10.300;2023-04-24T01:06:15;7.17;;;5.53;;
63110;SDS011;49201;53.426;10.300;2023-04-24T01:08:40;6.23;;;5.53;;
63110;SDS011;49201;53.426;10.300;2023-04-24T01:11:06;7.03;;;6.00;;
63110;SDS011;49201;53.426;10.300;2023-04-24T01:13:32;7.97;;;6.00;;
63110;SDS011;49201;53.426;10.300;2023-04-24T01:15:58;6.43;;;5.53;;
63110;SDS011;49201;53.426;10.300;2023-04-24T01:18:26;6.43;;;5.83;;
63110;SDS011;49201;53.426;10.300;2023-04-24T01:20:53;5.80;;;5.30;;
63110;SDS011;49201;53.426;10.300;2023-04-24T01:23:22;6.90;;;5.97;;
63110;SDS011;49201;53.426;10.300;2023-04-24T01:25:50;6.63;;;5.97;;
63110;SDS011;49201;53.426;10.300;2023-04-24T01:28:17;5.67;;;5.07;;
63110;SDS011;49201;53.426;10.300;2023-04-24T01:30:44;6.17;;;5.20;;
63110;SDS011;49201;53.426;10.300;2023-04-24T01:33:10;5.17;;;4.67;;
63110;SDS011;49201;53.426;10.300;2023-04-24T01:35:36;8.07;;;4.30;;
63110;SDS011;49201;53.426;10.300;2023-04-24T01:38:03;5.83;;;4.60;;
63110;SDS011;49201;53.426;10.300;2023-04-24T01:40:29;5.30;;;4.10;;
63110;SDS011;49201;53.426;10.300;2023-04-24T01:42:57;4.97;;;4.00;;
63110;SDS011;49201;53.426;10.300;2023-04-24T01:45:23;4.90;;;3.93;;
63110;SDS011;49201;53.426;10.300;2023-04-24T01:47:48;4.40;;;4.00;;
63110;SDS011;49201;53.426;10.300;2023-04-24T01:50:16;4.60;;;3.80;;
63110;SDS011;49201;53.426;10.300;2023-04-24T01:52:41;4.40;;;4.00;;
63110;SDS011;49201;53.426;10.300;2023-04-24T01:55:09;4.23;;;3.83;;
63110;SDS011;49201;53.426;10.300;2023-04-24T01:57:34;5.07;;;3.73;;
63110;SDS011;49201;53.426;10.300;2023-04-24T02:00:00;3.90;;;3.60;;
63110;SDS011;49201;53.426;10.300;2023-04-24T02:02:41;3.77;;;3.43;;
63110;SDS011;49201;53.426;10.300;2023-04-24T02:05:07;3.70;;;3.40;;
63110;SDS011;49201;53.426;10.300;2023-04-24T02:07:35;5.23;;;3.53;;
63110;SDS011;49201;53.426;10.300;2023-04-24T02:10:01;3.90;;;3.10;;
63110;SDS011;49201;53.426;10.300;2023-04-24T02:12:26;5.23;;;3.60;;
63110;SDS011;49201;53.426;10.300;2023-04-24T02:14:52;5.43;;;3.37;;
63110;SDS011;49201;53.426;10.300;2023-04-24T02:17:17;4.37;;;2.90;;
63110;SDS011;49201;53.426;10.300;2023-04-24T02:19:44;3.30;;;3.00;;
63110;SDS011;49201;53.426;10.300;2023-04-24T02:22:10;3.00;;;2.63;;
63110;SDS011;49201;53.426;10.300;2023-04-24T02:24:36;3.00;;;2.77;;
63110;SDS011;49201;53.426;10.300;2023-04-24T02:27:02;3.07;;;2.70;;
63110;SDS011;49201;53.426;10.300;2023-04-24T02:29:28;3.10;;;2.80;;
63110;SDS011;49201;53.426;10.300;2023-04-24T02:31:53;3.30;;;2.90;;
63110;SDS011;49201;53.426;10.300;2023-04-24T02:34:19;3.50;;;3.20;;
63110;SDS011;49201;53.426;10.300;2023-04-24T02:36:44;2.90;;;2.70;;
63110;SDS011;49201;53.426;10.300;2023-04-24T02:39:09;6.13;;;2.73;;
63110;SDS011;49201;53.426;10.300;2023-04-24T02:41:35;2.90;;;2.17;;
63110;SDS011;49201;53.426;10.300;2023-04-24T02:44:00;2.70;;;2.50;;
63110;SDS011;49201;53.426;10.300;2023-04-24T02:46:26;5.50;;;2.57;;
63110;SDS011;49201;53.426;10.300;2023-04-24T02:48:52;2.40;;;2.20;;
63110;SDS011;49201;53.426;10.300;2023-04-24T02:51:17;3.63;;;2.70;;
63110;SDS011;49201;53.426;10.300;2023-04-24T02:53:42;2.87;;;2.60;;
63110;SDS011;49201;53.426;10.300;2023-04-24T02:56:08;2.70;;;2.07;;
63110;SDS011;49201;53.426;10.300;2023-04-24T02:58:33;3.50;;;2.00;;
63110;SDS011;49201;53.426;10.300;2023-04-24T03:00:59;2.70;;;1.87;;
63110;SDS011;49201;53.426;10.300;2023-04-24T03:03:25;2.40;;;2.20;;
63110;SDS011;49201;53.426;10.300;2023-04-24T03:05:51;2.43;;;2.13;;
63110;SDS011;49201;53.426;10.300;2023-04-24T03:08:17;2.20;;;2.00;;
63110;SDS011;49201;53.426;10.300;2023-04-24T03:10:42;2.50;;;2.10;;
63110;SDS011;49201;53.426;10.300;2023-04-24T03:13:08;2.67;;;2.13;;
63110;SDS011;49201;53.426;10.300;2023-04-24T03:15:33;3.10;;;2.20;;
63110;SDS011;49201;53.426;10.300;2023-04-24T03:17:59;2.60;;;2.40;;
63110;SDS011;49201;53.426;10.300;2023-04-24T03:20:26;2.23;;;2.03;;
63110;SDS011;49201;53.426;10.300;2023-04-24T03:22:53;3.27;;;2.13;;
63110;SDS011;49201;53.426;10.300;2023-04-24T03:25:18;2.37;;;2.17;;
63110;SDS011;49201;53.426;10.300;2023-04-24T03:27:44;2.23;;;2.07;;
63110;SDS011;49201;53.426;10.300;2023-04-24T03:30:27;3.47;;;2.60;;
63110;SDS011;49201;53.426;10.300;2023-04-24T03:32:57;2.77;;;2.37;;
63110;SDS011;49201;53.426;10.300;2023-04-24T03:35:27;2.30;;;2.10;;
63110;SDS011;49201;53.426;10.300;2023-04-24T03:37:53;2.97;;;2.37;;
63110;SDS011;49201;53.426;10.300;2023-04-24T03:40:53;3.57;;;2.30;;
63110;SDS011;49201;53.426;10.300;2023-04-24T03:43:33;2.67;;;2.47;;
63110;SDS011;49201;53.426;10.300;2023-04-24T03:46:01;4.47;;;2.40;;
63110;SDS011;49201;53.426;10.300;2023-04-24T03:48:28;2.27;;;2.07;;
63110;SDS011;49201;53.426;10.300;2023-04-24T03:50:53;2.30;;;2.10;;
63110;SDS011;49201;53.426;10.300;2023-04-24T03:53:19;2.67;;;1.83;;
63110;SDS011;49201;53.426;10.300;2023-04-24T03:55:45;2.20;;;2.00;;
63110;SDS011;49201;53.426;10.300;2023-04-24T03:58:11;2.10;;;1.90;;
63110;SDS011;49201;53.426;10.300;2023-04-24T04:00:37;3.60;;;2.20;;
63110;SDS011;49201;53.426;10.300;2023-04-24T04:03:25;2.10;;;1.90;;
63110;SDS011;49201;53.426;10.300;2023-04-24T04:05:50;1.93;;;1.77;;
63110;SDS011;49201;53.426;10.300;2023-04-24T04:08:16;4.23;;;2.00;;
63110;SDS011;49201;53.426;10.300;2023-04-24T04:10:42;2.40;;;2.20;;
63110;SDS011;49201;53.426;10.300;2023-04-24T04:13:07;1.90;;;1.80;;
63110;SDS011;49201;53.426;10.300;2023-04-24T04:15:34;2.23;;;1.90;;
63110;SDS011;49201;53.426;10.300;2023-04-24T04:17:59;3.13;;;2.00;;
63110;SDS011;49201;53.426;10.300;2023-04-24T04:20:25;2.13;;;1.93;;
63110;SDS011;49201;53.426;10.300;2023-04-24T04:22:51;2.40;;;2.10;;
63110;SDS011;49201;53.426;10.300;2023-04-24T04:25:23;2.63;;;2.43;;
63110;SDS011;49201;53.426;10.300;2023-04-24T04:27:50;2.93;;;2.10;;
63110;SDS011;49201;53.426;10.300;2023-04-24T04:30:16;2.63;;;2.40;;
63110;SDS011;49201;53.426;10.300;2023-04-24T04:32:53;2.40;;;2.20;;
63110;SDS011;49201;53.426;10.300;2023-04-24T04:35:20;3.50;;;3.20;;
63110;SDS011;49201;53.426;10.300;2023-04-24T04:37:45;4.37;;;3.93;;
63110;SDS011;49201;53.426;10.300;2023-04-24T04:40:17;3.10;;;2.80;;
63110;SDS011;49201;53.426;10.300;2023-04-24T04:42:57;2.90;;;2.30;;
63110;SDS011;49201;53.426;10.300;2023-04-24T04:45:24;2.27;;;2.07;;
63110;SDS011;49201;53.426;10.300;2023-04-24T04:48:10;3.70;;;2.30;;
63110;SDS011;49201;53.426;10.300;2023-04-24T04:50:39;2.87;;;2.30;;
63110;SDS011;49201;53.426;10.300;2023-04-24T04:53:06;3.20;;;2.07;;
63110;SDS011;49201;53.426;10.300;2023-04-24T04:55:36;1.80;;;1.70;;
63110;SDS011;49201;53.426;10.300;2023-04-24T04:58:09;2.17;;;1.97;;
63110;SDS011;49201;53.426;10.300;2023-04-24T05:00:35;1.97;;;1.70;;
63110;SDS011;49201;53.426;10.300;2023-04-24T05:03:12;3.63;;;2.00;;
63110;SDS011;49201;53.426;10.300;2023-04-24T05:05:38;2.43;;;1.80;;
63110;SDS011;49201;53.426;10.300;2023-04-24T05:08:07;2.10;;;1.70;;
63110;SDS011;49201;53.426;10.300;2023-04-24T05:10:33;2.40;;;1.50;;
63110;SDS011;49201;53.426;10.300;2023-04-24T05:13:02;1.80;;;1.50;;
63110;SDS011;49201;53.426;10.300;2023-04-24T05:15:29;2.03;;;1.47;;
63110;SDS011;49201;53.426;10.300;2023-04-24T05:17:56;1.30;;;1.20;;
63110;SDS011;49201;53.426;10.300;2023-04-24T05:20:22;1.40;;;1.10;;
63110;SDS011;49201;53.426;10.300;2023-04-24T05:22:48;2.20;;;1.33;;
63110;SDS011;49201;53.426;10.300;2023-04-24T05:25:14;4.30;;;1.33;;
63110;SDS011;49201;53.426;10.300;2023-04-24T05:27:46;2.97;;;1.13;;
63110;SDS011;49201;53.426;10.300;2023-04-24T05:30:14;1.50;;;1.40;;
63110;SDS011;49201;53.426;10.300;2023-04-24T05:32:39;1.30;;;1.20;;
63110;SDS011;49201;53.426;10.300;2023-04-24T05:35:05;1.73;;;1.40;;
63110;SDS011;49201;53.426;10.300;2023-04-24T05:37:31;1.40;;;1.30;;
63110;SDS011;49201;53.426;10.300;2023-04-24T05:39:57;2.20;;;1.20;;
63110;SDS011;49201;53.426;10.300;2023-04-24T05:42:22;2.07;;;1.40;;
63110;SDS011;49201;53.426;10.300;2023-04-24T05:44:49;1.83;;;1.33;;
63110;SDS011;49201;53.426;10.300;2023-04-24T05:47:14;2.57;;;1.30;;
63110;SDS011;49201;53.426;10.300;2023-04-24T05:49:40;1.83;;;1.30;;
63110;SDS011;49201;53.426;10.300;2023-04-24T05:52:07;1.33;;;1.23;;
63110;SDS011;49201;53.426;10.300;2023-04-24T05:54:34;1.30;;;1.20;;
63110;SDS011;49201;53.426;10.300;2023-04-24T05:57:00;1.47;;;1.20;;
63110;SDS011;49201;53.426;10.300;2023-04-24T05:59:41;1.37;;;1.03;;
63110;SDS011;49201;53.426;10.300;2023-04-24T06:02:07;1.33;;;1.23;;
63110;SDS011;49201;53.426;10.300;2023-04-24T06:04:33;1.80;;;1.27;;
63110;SDS011;49201;53.426;10.300;2023-04-24T06:06:59;1.40;;;0.97;;
63110;SDS011;49201;53.426;10.300;2023-04-24T06:09:25;1.90;;;1.07;;
63110;SDS011;49201;53.426;10.300;2023-04-24T06:11:51;3.97;;;1.30;;
63110;SDS011;49201;53.426;10.300;2023-04-24T06:14:20;1.20;;;1.10;;
63110;SDS011;49201;53.426;10.300;2023-04-24T06:17:12;1.10;;;1.00;;
63110;SDS011;49201;53.426;10.300;2023-04-24T06:19:39;2.37;;;1.40;;
63110;SDS011;49201;53.426;10.300;2023-04-24T06:22:05;1.50;;;1.20;;
63110;SDS011;49201;53.426;10.300;2023-04-24T06:24:31;2.67;;;1.30;;
63110;SDS011;49201;53.426;10.300;2023-04-24T06:26:57;1.23;;;1.13;;
63110;SDS011;49201;53.426;10.300;2023-04-24T06:29:24;2.50;;;1.50;;
63110;SDS011;49201;53.426;10.300;2023-04-24T06:31:49;1.70;;;1.60;;
63110;SDS011;49201;53.426;10.300;2023-04-24T06:34:15;1.20;;;1.10;;
63110;SDS011;49201;53.426;10.300;2023-04-24T06:36:40;3.40;;;1.43;;
63110;SDS011;49201;53.426;10.300;2023-04-24T06:39:06;1.47;;;1.30;;
63110;SDS011;49201;53.426;10.300;2023-04-24T06:41:32;1.37;;;1.27;;
63110;SDS011;49201;53.426;10.300;2023-04-24T06:43:57;1.67;;;1.40;;
63110;SDS011;49201;53.426;10.300;2023-04-24T06:46:22;1.40;;;1.30;;
63110;SDS011;49201;53.426;10.300;2023-04-24T06:48:51;1.70;;;1.40;;
63110;SDS011;49201;53.426;10.300;2023-04-24T06:51:22;1.70;;;1.50;;
63110;SDS011;49201;53.426;10.300;2023-04-24T06:53:48;2.00;;;1.83;;
63110;SDS011;49201;53.426;10.300;2023-04-24T06:56:15;1.70;;;1.50;;
63110;SDS011;49201;53.426;10.300;2023-04-24T06:58:40;2.37;;;1.73;;
63110;SDS011;49201;53.426;10.300;2023-04-24T07:01:06;2.27;;;1.77;;
63110;SDS011;49201;53.426;10.300;2023-04-24T07:03:32;1.90;;;1.80;;
63110;SDS011;49201;53.426;10.300;2023-04-24T07:05:57;2.17;;;1.83;;
63110;SDS011;49201;53.426;10.300;2023-04-24T07:08:23;1.60;;;1.50;;
63110;SDS011;49201;53.426;10.300;2023-04-24T07:10:49;1.60;;;1.50;;
63110;SDS011;49201;53.426;10.300;2023-04-24T07:13:15;1.80;;;1.70;;
63110;SDS011;49201;53.426;10.300;2023-04-24T07:15:41;1.70;;;1.60;;
63110;SDS011;49201;53.426;10.300;2023-04-24T07:18:06;2.00;;;1.80;;
63110;SDS011;49201;53.426;10.300;2023-04-24T07:20:32;1.83;;;1.50;;
63110;SDS011;49201;53.426;10.300;2023-04-24T07:22:58;2.00;;;1.73;;
63110;SDS011;49201;53.426;10.300;2023-04-24T07:25:23;1.70;;;1.60;;
63110;SDS011;49201;53.426;10.300;2023-04-24T07:27:49;2.50;;;1.70;;
63110;SDS011;49201;53.426;10.300;2023-04-24T07:30:14;2.13;;;1.70;;
63110;SDS011;49201;53.426;10.300;2023-04-24T07:32:40;1.70;;;1.60;;
63110;SDS011;49201;53.426;10.300;2023-04-24T07:35:05;1.80;;;1.70;;
63110;SDS011;49201;53.426;10.300;2023-04-24T07:37:31;1.90;;;1.80;;
63110;SDS011;49201;53.426;10.300;2023-04-24T07:39:56;2.13;;;1.93;;
63110;SDS011;49201;53.426;10.300;2023-04-24T07:42:22;2.57;;;1.67;;
63110;SDS011;49201;53.426;10.300;2023-04-24T07:44:47;2.03;;;1.63;;
63110;SDS011;49201;53.426;10.300;2023-04-24T07:47:13;1.70;;;1.60;;
63110;SDS011;49201;53.426;10.300;2023-04-24T07:49:41;1.90;;;1.50;;
63110;SDS011;49201;53.426;10.300;2023-04-24T07:52:07;1.83;;;1.63;;
63110;SDS011;49201;53.426;10.300;2023-04-24T07:54:32;2.37;;;1.30;;
63110;SDS011;49201;53.426;10.300;2023-04-24T07:56:58;2.23;;;1.50;;
63110;SDS011;49201;53.426;10.300;2023-04-24T07:59:23;2.63;;;1.80;;
63110;SDS011;49201;53.426;10.300;2023-04-24T08:01:49;6.93;;;2.00;;
63110;SDS011;49201;53.426;10.300;2023-04-24T08:04:15;2.83;;;1.87;;
63110;SDS011;49201;53.426;10.300;2023-04-24T08:06:40;1.87;;;1.70;;
63110;SDS011;49201;53.426;10.300;2023-04-24T08:09:05;1.73;;;1.60;;
63110;SDS011;49201;53.426;10.300;2023-04-24T08:11:31;2.03;;;1.70;;
63110;SDS011;49201;53.426;10.300;2023-04-24T08:13:57;2.33;;;1.50;;
63110;SDS011;49201;53.426;10.300;2023-04-24T08:16:22;3.03;;;2.33;;
63110;SDS011;49201;53.426;10.300;2023-04-24T08:18:51;6.13;;;2.37;;
63110;SDS011;49201;53.426;10.300;2023-04-24T08:21:17;3.07;;;2.00;;
63110;SDS011;49201;53.426;10.300;2023-04-24T08:23:44;2.53;;;2.33;;
63110;SDS011;49201;53.426;10.300;2023-04-24T08:26:11;3.40;;;2.03;;
63110;SDS011;49201;53.426;10.300;2023-04-24T08:28:37;2.40;;;2.17;;
63110;SDS011;49201;53.426;10.300;2023-04-24T08:31:03;2.23;;;2.03;;
63110;SDS011;49201;53.426;10.300;2023-04-24T08:33:28;3.47;;;2.70;;
63110;SDS011;49201;53.426;10.300;2023-04-24T08:36:00;2.83;;;2.43;;
63110;SDS011;49201;53.426;10.300;2023-04-24T08:38:29;3.87;;;2.60;;
63110;SDS011;49201;53.426;10.300;2023-04-24T08:40:56;3.27;;;2.90;;
63110;SDS011;49201;53.426;10.300;2023-04-24T08:43:25;4.33;;;3.13;;
63110;SDS011;49201;53.426;10.300;2023-04-24T08:45:51;4.37;;;3.20;;
63110;SDS011;49201;53.426;10.300;2023-04-24T08:48:17;3.30;;;3.00;;
63110;SDS011;49201;53.426;10.300;2023-04-24T08:50:43;3.40;;;3.10;;
63110;SDS011;49201;53.426;10.300;2023-04-24T08:53:10;3.47;;;3.20;;
63110;SDS011;49201;53.426;10.300;2023-04-24T08:55:36;3.23;;;2.93;;
63110;SDS011;49201;53.426;10.300;2023-04-24T08:58:02;3.87;;;3.53;;
63110;SDS011;49201;53.426;10.300;2023-04-24T09:00:29;4.27;;;3.70;;
63110;SDS011;49201;53.426;10.300;2023-04-24T09:02:55;4.30;;;4.00;;
63110;SDS011;49201;53.426;10.300;2023-04-24T09:05:21;6.67;;;4.03;;
63110;SDS011;49201;53.426;10.300;2023-04-24T09:07:55;5.33;;;4.47;;
63110;SDS011;49201;53.426;10.300;2023-04-24T09:10:23;4.40;;;4.00;;
63110;SDS011;49201;53.426;10.300;2023-04-24T09:12:50;5.10;;;4.50;;
63110;SDS011;49201;53.426;10.300;2023-04-24T09:15:17;5.93;;;5.33;;
63110;SDS011;49201;53.426;10.300;2023-04-24T09:17:43;5.03;;;4.63;;
63110;SDS011;49201;53.426;10.300;2023-04-24T09:20:09;6.27;;;5.67;;
63110;SDS011;49201;53.426;10.300;2023-04-24T09:22:36;6.10;;;5.20;;
63110;SDS011;49201;53.426;10.300;2023-04-24T09:25:02;5.30;;;3.90;;
63110;SDS011;49201;53.426;10.300;2023-04-24T09:27:30;5.07;;;4.30;;
63110;SDS011;49201;53.426;10.300;2023-04-24T09:29:57;4.43;;;4.03;;
63110;SDS011;49201;53.426;10.300;2023-04-24T09:32:23;5.00;;;4.50;;
63110;SDS011;49201;53.426;10.300;2023-04-24T09:35:12;4.60;;;4.20;;
63110;SDS011;49201;53.426;10.300;2023-04-24T09:37:38;5.60;;;4.87;;
63110;SDS011;49201;53.426;10.300;2023-04-24T09:40:19;7.10;;;5.47;;
63110;SDS011;49201;53.426;10.300;2023-04-24T09:42:57;6.30;;;5.70;;
63110;SDS011;49201;53.426;10.300;2023-04-24T09:45:35;6.73;;;6.03;;
63110;SDS011;49201;53.426;10.300;2023-04-24T09:48:01;6.27;;;5.67;;
63110;SDS011;49201;53.426;10.300;2023-04-24T09:50:29;6.40;;;5.80;;
63110;SDS011;49201;53.426;10.300;2023-04-24T09:53:02;5.73;;;5.23;;
63110;SDS011;49201;53.426;10.300;2023-04-24T09:55:29;6.50;;;5.80;;
63110;SDS011;49201;53.426;10.300;2023-04-24T09:57:55;6.80;;;6.17;;
63110;SDS011;49201;53.426;10.300;2023-04-24T10:00:33;6.47;;;5.87;;
63110;SDS011;49201;53.426;10.300;2023-04-24T10:03:05;6.60;;;5.90;;
63110;SDS011;49201;53.426;10.300;2023-04-24T10:05:32;5.97;;;5.37;;
63110;SDS011;49201;53.426;10.300;2023-04-24T10:10:32;5.07;;;4.67;;
63110;SDS011;49201;53.426;10.300;2023-04-24T10:13:04;5.80;;;5.20;;
63110;SDS011;49201;53.426;10.300;2023-04-24T10:15:30;5.97;;;4.70;;
63110;SDS011;49201;53.426;10.300;2023-04-24T10:17:57;7.20;;;5.53;;
63110;SDS011;49201;53.426;10.300;2023-04-24T10:20:27;6.37;;;5.30;;
63110;SDS011;49201;53.426;10.300;2023-04-24T10:22:56;6.77;;;6.07;;
63110;SDS011;49201;53.426;10.300;2023-04-24T10:25:23;8.00;;;6.77;;
63110;SDS011;49201;53.426;10.300;2023-04-24T10:27:50;9.67;;;7.17;;
63110;SDS011;49201;53.426;10.300;2023-04-24T10:30:17;9.70;;;7.10;;
63110;SDS011;49201;53.426;10.300;2023-04-24T10:32:44;8.77;;;7.80;;
63110;SDS011;49201;53.426;10.300;2023-04-24T10:35:10;8.13;;;7.33;;
63110;SDS011;49201;53.426;10.300;2023-04-24T10:37:54;7.83;;;6.83;;
63110;SDS011;49201;53.426;10.300;2023-04-24T10:40:26;8.53;;;7.60;;
63110;SDS011;49201;53.426;10.300;2023-04-24T10:42:57;7.90;;;7.10;;
63110;SDS011;49201;53.426;10.300;2023-04-24T10:45:23;10.30;;;7.63;;
63110;SDS011;49201;53.426;10.300;2023-04-24T10:50:18;11.27;;;8.90;;
63110;SDS011;49201;53.426;10.300;2023-04-24T10:52:45;9.73;;;8.27;;
63110;SDS011;49201;53.426;10.300;2023-04-24T10:55:12;9.13;;;8.13;;
63110;SDS011;49201;53.426;10.300;2023-04-24T10:57:39;9.20;;;7.50;;
63110;SDS011;49201;53.426;10.300;2023-04-24T11:00:20;8.80;;;8.03;;
63110;SDS011;49201;53.426;10.300;2023-04-24T11:02:47;9.40;;;7.53;;
63110;SDS011;49201;53.426;10.300;2023-04-24T11:05:18;8.63;;;7.10;;
63110;SDS011;49201;53.426;10.300;2023-04-24T11:10:40;7.83;;;7.07;;
63110;SDS011;49201;53.426;10.300;2023-04-24T11:13:06;9.00;;;7.80;;
63110;SDS011;49201;53.426;10.300;2023-04-24T11:15:32;8.97;;;7.67;;
63110;SDS011;49201;53.426;10.300;2023-04-24T11:17:57;9.27;;;8.13;;
63110;SDS011;49201;53.426;10.300;2023-04-24T11:20:23;8.07;;;7.27;;
63110;SDS011;49201;53.426;10.300;2023-04-24T11:22:51;8.83;;;7.93;;
63110;SDS011;49201;53.426;10.300;2023-04-24T11:25:19;10.53;;;7.77;;
63110;SDS011;49201;53.426;10.300;2023-04-24T11:27:47;9.60;;;7.03;;
63110;SDS011;49201;53.426;10.300;2023-04-24T11:30:18;8.93;;;7.20;;
63110;SDS011;49201;53.426;10.300;2023-04-24T11:32:47;8.10;;;6.10;;
63110;SDS011;49201;53.426;10.300;2023-04-24T11:35:15;7.13;;;6.07;;
63110;SDS011;49201;53.426;10.300;2023-04-24T11:37:52;6.73;;;5.67;;
63110;SDS011;49201;53.426;10.300;2023-04-24T11:40:20;6.90;;;5.20;;
63110;SDS011;49201;53.426;10.300;2023-04-24T11:42:49;5.20;;;4.70;;
63110;SDS011;49201;53.426;10.300;2023-04-24T11:45:17;6.53;;;5.27;;
63110;SDS011;49201;53.426;10.300;2023-04-24T11:47:48;6.23;;;5.57;;
63110;SDS011;49201;53.426;10.300;2023-04-24T11:50:14;7.07;;;5.23;;
63110;SDS011;49201;53.426;10.300;2023-04-24T11:52:42;5.23;;;4.60;;
63110;SDS011;49201;53.426;10.300;2023-04-24T11:55:22;5.83;;;5.07;;
63110;SDS011;49201;53.426;10.300;2023-04-24T11:57:54;5.83;;;4.97;;
63110;SDS011;49201;53.426;10.300;2023-04-24T12:00:28;6.40;;;4.43;;
63110;SDS011;49201;53.426;10.300;2023-04-24T12:03:07;5.13;;;4.63;;
63110;SDS011;49201;53.426;10.300;2023-04-24T12:05:34;6.30;;;4.57;;
63110;SDS011;49201;53.426;10.300;2023-04-24T12:08:00;4.63;;;4.17;;
63110;SDS011;49201;53.426;10.300;2023-04-24T12:10:27;3.80;;;3.50;;
63110;SDS011;49201;53.426;10.300;2023-04-24T12:12:55;5.33;;;4.40;;
63110;SDS011;49201;53.426;10.300;2023-04-24T12:15:22;4.90;;;4.40;;
63110;SDS011;49201;53.426;10.300;2023-04-24T12:17:48;5.57;;;4.60;;
63110;SDS011;49201;53.426;10.300;2023-04-24T12:20:16;7.33;;;5.47;;
63110;SDS011;49201;53.426;10.300;2023-04-24T12:22:45;7.23;;;4.63;;
63110;SDS011;49201;53.426;10.300;2023-04-24T12:25:12;5.23;;;4.60;;
63110;SDS011;49201;53.426;10.300;2023-04-24T12:27:38;5.47;;;4.60;;
63110;SDS011;49201;53.426;10.300;2023-04-24T12:30:05;6.33;;;5.20;;
63110;SDS011;49201;53.426;10.300;2023-04-24T12:32:34;5.57;;;5.07;;
63110;SDS011;49201;53.426;10.300;2023-04-24T12:35:00;5.77;;;4.20;;
63110;SDS011;49201;53.426;10.300;2023-04-24T12:37:26;5.20;;;4.70;;
63110;SDS011;49201;53.426;10.300;2023-04-24T12:42:33;5.57;;;4.27;;
63110;SDS011;49201;53.426;10.300;2023-04-24T12:45:00;4.13;;;3.73;;
63110;SDS011;49201;53.426;10.300;2023-04-24T12:47:27;4.67;;;4.20;;
63110;SDS011;49201;53.426;10.300;2023-04-24T12:49:53;4.87;;;4.47;;
63110;SDS011;49201;53.426;10.300;2023-04-24T12:52:20;6.40;;;4.33;;
63110;SDS011;49201;53.426;10.300;2023-04-24T12:54:47;4.90;;;4.40;;
63110;SDS011;49201;53.426;10.300;2023-04-24T12:57:13;6.10;;;4.43;;
63110;SDS011;49201;53.426;10.300;2023-04-24T12:59:38;6.97;;;4.73;;
63110;SDS011;49201;53.426;10.300;2023-04-24T13:02:04;5.27;;;4.50;;
63110;SDS011;49201;53.426;10.300;2023-04-24T13:04:31;7.37;;;4.37;;
63110;SDS011;49201;53.426;10.300;2023-04-24T13:06:57;5.20;;;4.70;;
63110;SDS011;49201;53.426;10.300;2023-04-24T13:09:22;4.90;;;4.33;;
63110;SDS011;49201;53.426;10.300;2023-04-24T13:11:49;4.80;;;4.00;;
63110;SDS011;49201;53.426;10.300;2023-04-24T13:14:15;4.63;;;4.23;;
63110;SDS011;49201;53.426;10.300;2023-04-24T13:16:41;4.70;;;4.10;;
63110;SDS011;49201;53.426;10.300;2023-04-24T13:19:06;6.30;;;3.80;;
63110;SDS011;49201;53.426;10.300;2023-04-24T13:21:31;4.17;;;3.87;;
63110;SDS011;49201;53.426;10.300;2023-04-24T13:23:57;3.80;;;3.50;;
63110;SDS011;49201;53.426;10.300;2023-04-24T13:26:22;3.73;;;2.60;;
63110;SDS011;49201;53.426;10.300;2023-04-24T13:28:48;2.80;;;2.50;;
63110;SDS011;49201;53.426;10.300;2023-04-24T13:31:14;4.43;;;2.80;;
63110;SDS011;49201;53.426;10.300;2023-04-24T13:33:39;2.93;;;2.50;;
63110;SDS011;49201;53.426;10.300;2023-04-24T13:36:05;4.70;;;3.47;;
63110;SDS011;49201;53.426;10.300;2023-04-24T13:38:31;3.63;;;2.70;;
63110;SDS011;49201;53.426;10.300;2023-04-24T13:40:57;2.93;;;2.63;;
63110;SDS011;49201;53.426;10.300;2023-04-24T13:43:22;2.77;;;2.47;;
63110;SDS011;49201;53.426;10.300;2023-04-24T13:45:48;3.23;;;2.93;;
63110;SDS011;49201;53.426;10.300;2023-04-24T13:48:13;3.07;;;2.87;;
63110;SDS011;49201;53.426;10.300;2023-04-24T13:50:41;3.30;;;2.97;;
63110;SDS011;49201;53.426;10.300;2023-04-24T13:53:07;5.10;;;3.03;;
63110;SDS011;49201;53.426;10.300;2023-04-24T13:55:32;2.70;;;2.50;;
63110;SDS011;49201;53.426;10.300;2023-04-24T13:57:58;3.07;;;2.83;;
63110;SDS011;49201;53.426;10.300;2023-04-24T14:00:23;4.43;;;2.70;;
63110;SDS011;49201;53.426;10.300;2023-04-24T14:02:49;2.73;;;2.30;;
63110;SDS011;49201;53.426;10.300;2023-04-24T14:05:15;3.03;;;2.50;;
63110;SDS011;49201;53.426;10.300;2023-04-24T14:07:41;3.60;;;2.50;;
63110;SDS011;49201;53.426;10.300;2023-04-24T14:10:07;3.40;;;3.10;;
63110;SDS011;49201;53.426;10.300;2023-04-24T14:12:33;2.97;;;2.77;;
63110;SDS011;49201;53.426;10.300;2023-04-24T14:14:59;2.53;;;2.33;;
63110;SDS011;49201;53.426;10.300;2023-04-24T14:17:24;2.90;;;2.63;;
63110;SDS011;49201;53.426;10.300;2023-04-24T14:19:50;3.10;;;2.80;;
63110;SDS011;49201;53.426;10.300;2023-04-24T14:22:17;3.60;;;3.00;;
63110;SDS011;49201;53.426;10.300;2023-04-24T14:24:42;3.60;;;3.30;;
63110;SDS011;49201;53.426;10.300;2023-04-24T14:27:08;3.73;;;3.10;;
63110;SDS011;49201;53.426;10.300;2023-04-24T14:29:33;4.00;;;3.40;;
63110;SDS011;49201;53.426;10.300;2023-04-24T14:31:59;3.97;;;3.57;;
63110;SDS011;49201;53.426;10.300;2023-04-24T14:34:24;3.07;;;2.70;;
63110;SDS011;49201;53.426;10.300;2023-04-24T14:36:50;4.93;;;3.07;;
63110;SDS011;49201;53.426;10.300;2023-04-24T14:39:17;3.03;;;2.83;;
63110;SDS011;49201;53.426;10.300;2023-04-24T14:41:43;3.83;;;2.90;;
63110;SDS011;49201;53.426;10.300;2023-04-24T14:44:08;4.80;;;3.13;;